createdAt,value
2018-03-20T09:50:35.283Z,7.00
2018-03-20T09:58:38.732Z,1.87
2018-03-20T10:01:04.755Z,2.00
2018-03-20T10:03:31.818Z,2.10
2018-03-20T10:05:57.870Z,1.90
2018-03-20T10:08:23.897Z,2.00
2018-03-20T10:10:49.927Z,2.33
2018-03-20T10:13:15.967Z,1.97
2018-03-20T10:15:42.770Z,1.90
2018-03-20T10:18:09.113Z,2.30
2018-03-20T10:20:35.135Z,1.90
2018-03-20T10:23:01.886Z,1.90
2018-03-20T10:25:27.939Z,2.20
2018-03-20T10:27:54.707Z,1.53
2018-03-20T10:30:20.722Z,1.60
2018-03-20T10:32:47.514Z,1.67
2018-03-20T10:35:13.555Z,2.00
2018-03-20T10:37:39.603Z,1.70
2018-03-20T10:40:05.623Z,1.93
2018-03-20T10:42:31.657Z,2.10
2018-03-20T10:44:57.715Z,1.87
2018-03-20T10:47:23.742Z,1.87
2018-03-20T10:49:49.767Z,1.77
2018-03-20T10:52:15.812Z,1.50
2018-03-20T10:54:41.851Z,1.97
2018-03-20T10:57:08.746Z,1.67
2018-03-20T10:59:34.757Z,1.70
2018-03-20T11:05:05.639Z,1.77
2018-03-20T11:07:31.690Z,1.80
2018-03-20T11:09:57.708Z,1.43
2018-03-20T11:12:23.750Z,1.60
2018-03-20T11:14:50.845Z,1.97
2018-03-20T11:17:17.615Z,1.90
2018-03-20T11:19:43.615Z,1.67
2018-03-20T11:22:09.975Z,1.60
2018-03-20T11:24:36.848Z,1.60
2018-03-20T11:27:02.855Z,2.27
2018-03-20T11:29:29.744Z,1.77
2018-03-20T11:31:55.774Z,2.13
2018-03-20T11:34:21.793Z,2.17
2018-03-20T11:36:47.844Z,1.90
2018-03-20T11:39:13.919Z,1.77
2018-03-20T11:41:39.948Z,1.47
2018-03-20T11:44:06.022Z,1.60
2018-03-20T11:46:32.051Z,2.20
2018-03-20T11:48:58.055Z,1.90
2018-03-20T11:51:24.083Z,1.70
2018-03-20T11:53:50.111Z,1.43
2018-03-20T11:56:16.150Z,1.80
2018-03-20T11:58:42.218Z,1.60
2018-03-20T12:01:08.355Z,1.60
2018-03-20T12:03:34.400Z,1.57
2018-03-20T12:06:00.450Z,1.90
2018-03-20T12:08:38.731Z,1.63
2018-03-20T12:11:04.817Z,1.20
2018-03-20T12:13:30.926Z,1.90
2018-03-20T12:15:56.975Z,1.60
2018-03-20T12:18:23.027Z,1.67
2018-03-20T12:20:49.067Z,1.60
2018-03-20T12:23:15.134Z,1.97
2018-03-20T12:25:41.157Z,1.73
2018-03-20T12:28:07.960Z,1.57
2018-03-20T12:30:34.029Z,1.60
2018-03-20T12:33:00.124Z,1.83
2018-03-20T12:35:26.175Z,1.50
2018-03-20T12:37:52.203Z,2.43
2018-03-20T12:40:18.264Z,1.80
2018-03-20T12:42:44.607Z,1.87
2018-03-20T12:45:10.615Z,1.53
2018-03-20T12:47:36.623Z,1.50
2018-03-20T12:50:03.389Z,1.40
2018-03-20T12:52:29.548Z,1.80
2018-03-20T12:54:55.582Z,1.70
2018-03-20T12:57:23.787Z,1.43
2018-03-20T12:59:49.835Z,1.70
2018-03-20T13:02:16.287Z,2.20
2018-03-20T13:04:42.403Z,1.70
2018-03-20T13:07:08.724Z,1.90
2018-03-20T13:09:34.746Z,1.73
2018-03-20T13:12:00.783Z,1.73
2018-03-20T13:14:26.836Z,1.80
2018-03-20T13:16:52.871Z,1.57
2018-03-20T13:19:18.991Z,2.03
2018-03-20T13:21:45.039Z,1.80
2018-03-20T13:24:11.163Z,1.93
2018-03-20T13:26:37.921Z,1.83
2018-03-20T13:29:06.484Z,2.07
2018-03-20T13:31:32.575Z,1.67
2018-03-20T13:33:58.647Z,1.73
2018-03-20T13:36:24.687Z,1.60
2018-03-20T13:38:50.698Z,1.60
2018-03-20T13:41:16.686Z,2.30
2018-03-20T13:43:42.731Z,1.80
2018-03-20T13:46:09.498Z,1.40
2018-03-20T13:48:35.553Z,2.20
2018-03-20T13:51:01.682Z,2.50
2018-03-20T13:53:27.710Z,2.10
2018-03-20T13:55:53.934Z,2.13
2018-03-20T13:58:19.957Z,1.80
2018-03-20T14:00:45.955Z,1.90
2018-03-20T14:03:12.059Z,2.40
2018-03-20T14:05:38.089Z,3.17
2018-03-20T14:08:04.909Z,1.87
2018-03-20T14:10:30.946Z,1.70
2018-03-20T14:12:57.714Z,2.07
2018-03-20T14:15:23.762Z,2.03
2018-03-20T14:17:50.499Z,1.90
2018-03-20T14:20:16.533Z,2.53
2018-03-20T14:22:42.576Z,1.57
2018-03-20T14:25:08.592Z,1.97
2018-03-20T14:27:34.606Z,1.80
2018-03-20T14:30:00.628Z,2.00
2018-03-20T14:32:26.632Z,1.60
2018-03-20T14:34:53.264Z,1.50
2018-03-20T14:37:19.314Z,1.90
2018-03-20T14:39:46.129Z,2.40
2018-03-20T14:42:12.137Z,4.67
2018-03-20T14:44:38.582Z,1.97
2018-03-20T14:47:04.652Z,2.10
2018-03-20T14:49:30.663Z,1.83
2018-03-20T14:51:56.785Z,2.17
2018-03-20T14:54:22.806Z,1.97
2018-03-20T14:56:49.550Z,2.03
2018-03-20T14:59:16.330Z,1.90
2018-03-20T15:01:42.334Z,2.27
2018-03-20T15:04:10.078Z,2.60
2018-03-20T15:06:36.223Z,1.70
2018-03-20T15:09:02.288Z,2.13
2018-03-20T15:11:29.096Z,2.10
2018-03-20T15:13:55.169Z,2.40
2018-03-20T15:16:21.177Z,1.80
2018-03-20T15:18:47.188Z,1.97
2018-03-20T15:21:13.235Z,1.80
2018-03-20T15:23:39.257Z,1.57
2018-03-20T15:26:05.587Z,2.57
2018-03-20T15:28:31.917Z,1.93
2018-03-20T15:30:58.704Z,1.50
2018-03-20T15:33:24.756Z,2.47
2018-03-20T15:35:50.768Z,1.93
2018-03-20T15:38:16.798Z,2.00
2018-03-20T15:40:43.645Z,2.00
2018-03-20T15:43:10.422Z,2.60
2018-03-20T15:45:36.430Z,2.17
2018-03-20T15:48:02.535Z,1.83
2018-03-20T15:50:28.626Z,1.77
2018-03-20T15:52:54.709Z,2.30
2018-03-20T15:55:21.411Z,2.00
2018-03-20T15:57:48.203Z,2.10
2018-03-20T16:00:15.526Z,2.40
2018-03-20T16:02:42.271Z,1.70
2018-03-20T16:05:08.327Z,2.00
2018-03-20T16:07:34.944Z,1.80
2018-03-20T16:10:00.968Z,1.60
2018-03-20T16:12:26.974Z,2.20
2018-03-20T16:14:52.995Z,1.80
2018-03-20T16:17:19.021Z,1.47
2018-03-20T16:19:45.057Z,2.40
2018-03-20T16:22:11.863Z,1.83
2018-03-20T16:24:37.880Z,2.37
2018-03-20T16:27:03.950Z,2.00
2018-03-20T16:29:30.090Z,2.20
2018-03-20T16:31:56.072Z,1.63
2018-03-20T16:34:22.090Z,1.97
2018-03-20T16:36:48.921Z,2.30
2018-03-20T16:39:14.942Z,1.97
2018-03-20T16:41:40.968Z,2.30
2018-03-20T16:44:07.024Z,1.80
2018-03-20T16:46:33.229Z,1.90
2018-03-20T16:48:59.314Z,2.07
2018-03-20T16:51:25.375Z,2.63
2018-03-20T16:53:51.400Z,3.30
2018-03-20T16:56:18.426Z,2.67
2018-03-20T16:58:45.293Z,2.20
2018-03-20T17:01:11.408Z,2.17
2018-03-20T17:03:37.433Z,2.10
2018-03-20T17:06:03.492Z,2.00
2018-03-20T17:08:29.665Z,2.30
2018-03-20T17:10:56.463Z,2.00
2018-03-20T17:13:22.518Z,2.50
2018-03-20T17:15:48.511Z,2.33
2018-03-20T17:18:14.587Z,2.07
2018-03-20T17:20:40.870Z,2.40
2018-03-20T17:23:07.647Z,2.00
2018-03-20T17:25:34.132Z,2.67
2018-03-20T17:28:00.196Z,2.53
2018-03-20T17:30:26.273Z,2.27
2018-03-20T17:32:53.241Z,2.40
2018-03-20T17:35:19.288Z,1.80
2018-03-20T17:37:46.077Z,1.87
2018-03-20T17:40:12.127Z,2.50
2018-03-20T17:42:38.208Z,2.23
2018-03-20T17:45:04.266Z,2.30
2018-03-20T17:47:30.337Z,1.87
2018-03-20T17:49:56.418Z,2.90
2018-03-20T17:52:22.739Z,1.90
2018-03-20T17:54:49.638Z,2.17
2018-03-20T17:57:15.666Z,2.70
2018-03-20T17:59:41.762Z,2.00
2018-03-20T18:02:08.591Z,2.63
2018-03-20T18:04:34.616Z,2.53
2018-03-20T18:07:00.659Z,3.03
2018-03-20T18:09:26.695Z,2.20
2018-03-20T18:11:52.772Z,2.07
2018-03-20T18:14:19.551Z,2.70
2018-03-20T18:16:45.630Z,2.17
2018-03-20T18:19:11.644Z,2.27
2018-03-20T18:21:37.811Z,2.17
2018-03-20T18:24:03.908Z,2.20
2018-03-20T18:26:29.929Z,2.30
2018-03-20T18:28:55.940Z,1.97
2018-03-20T18:31:22.771Z,2.37
2018-03-20T18:33:48.827Z,2.70
2018-03-20T18:36:14.871Z,2.63
2018-03-20T18:38:41.659Z,2.80
2018-03-20T18:41:07.784Z,2.87
2018-03-20T18:43:33.850Z,2.70
2018-03-20T18:46:00.617Z,2.57
2018-03-20T18:48:26.651Z,2.93
2018-03-20T18:50:52.722Z,2.80
2018-03-20T18:53:19.921Z,2.70
2018-03-20T18:55:45.936Z,2.17
2018-03-20T18:58:12.776Z,2.60
2018-03-20T19:00:38.799Z,3.13
2018-03-20T19:03:04.905Z,2.97
2018-03-20T19:05:30.952Z,2.93
2018-03-20T19:07:56.966Z,3.27
2018-03-20T19:10:23.488Z,2.87
2018-03-20T19:12:49.523Z,3.70
2018-03-20T19:15:15.544Z,2.80
2018-03-20T19:17:42.639Z,3.17
2018-03-20T19:20:08.667Z,4.00
2018-03-20T19:22:34.849Z,4.27
2018-03-20T19:25:01.031Z,2.90
2018-03-20T19:27:29.114Z,2.80
2018-03-20T19:29:55.882Z,3.07
2018-03-20T19:32:21.960Z,3.67
2018-03-20T19:34:48.595Z,3.60
2018-03-20T19:37:14.657Z,4.53
2018-03-20T19:39:40.677Z,4.30
2018-03-20T19:42:06.739Z,4.70
2018-03-20T19:44:32.767Z,5.50
2018-03-20T19:46:58.791Z,5.40
2018-03-20T19:49:24.872Z,4.40
2018-03-20T19:51:56.875Z,5.40
2018-03-20T19:54:22.985Z,5.70
2018-03-20T19:56:49.164Z,6.30
2018-03-20T19:59:15.212Z,6.70
2018-03-20T20:01:41.240Z,5.90
2018-03-20T20:04:07.413Z,5.50
2018-03-20T20:06:33.495Z,4.53
2018-03-20T20:08:59.586Z,7.60
2018-03-20T20:11:25.672Z,10.67
2018-03-20T20:13:51.720Z,9.40
2018-03-20T20:16:24.816Z,10.60
2018-03-20T20:18:52.936Z,10.27
2018-03-20T20:21:18.981Z,6.00
2018-03-20T20:23:45.077Z,6.17
2018-03-20T20:26:11.203Z,8.60
2018-03-20T20:28:37.962Z,6.67
2018-03-20T20:31:04.496Z,5.93
2018-03-20T20:33:31.294Z,15.40
2018-03-20T20:35:57.360Z,18.33
2018-03-20T20:38:23.382Z,9.10
2018-03-20T20:40:49.469Z,8.30
2018-03-20T20:43:16.226Z,10.23
2018-03-20T20:45:42.228Z,7.33
2018-03-20T20:48:08.263Z,15.57
2018-03-20T20:50:34.368Z,22.00
2018-03-20T20:53:00.419Z,17.50
2018-03-20T20:55:26.474Z,13.97
2018-03-20T20:57:52.467Z,5.60
2018-03-20T21:00:19.487Z,5.80
2018-03-20T21:02:45.513Z,6.20
2018-03-20T21:05:11.547Z,5.73
2018-03-20T21:07:37.570Z,3.67
2018-03-20T21:10:04.002Z,4.40
2018-03-20T21:12:30.054Z,4.63
2018-03-20T21:14:56.238Z,3.70
2018-03-20T21:17:23.044Z,4.00
2018-03-20T21:19:49.133Z,3.90
2018-03-20T21:22:15.183Z,5.03
2018-03-20T21:24:41.211Z,3.87
2018-03-20T21:27:07.224Z,3.70
2018-03-20T21:29:34.378Z,4.13
2018-03-20T21:32:00.493Z,4.43
2018-03-20T21:34:26.513Z,4.30
2018-03-20T21:36:52.619Z,4.90
2018-03-20T21:39:18.760Z,4.30
2018-03-20T21:41:44.784Z,4.20
2018-03-20T21:44:11.576Z,4.00
2018-03-20T21:46:37.728Z,4.03
2018-03-20T21:49:03.811Z,4.23
2018-03-20T21:51:30.955Z,3.83
2018-03-20T21:53:57.692Z,4.20
2018-03-20T21:56:23.768Z,5.30
2018-03-20T21:58:50.558Z,4.73
2018-03-20T22:01:16.582Z,4.30
2018-03-20T22:03:43.351Z,5.30
2018-03-20T22:06:09.500Z,4.50
2018-03-20T22:08:39.943Z,4.23
2018-03-20T22:11:06.015Z,4.33
2018-03-20T22:13:32.197Z,4.87
2018-03-20T22:15:59.291Z,4.50
2018-03-20T22:18:25.695Z,4.20
2018-03-20T22:20:51.750Z,4.80
2018-03-20T22:23:18.493Z,4.40
2018-03-20T22:25:46.709Z,4.33
2018-03-20T22:28:12.733Z,4.53
2018-03-20T22:30:39.515Z,4.20
2018-03-20T22:33:05.821Z,4.47
2018-03-20T22:35:32.195Z,5.00
2018-03-20T22:37:58.343Z,4.33
2018-03-20T22:40:24.359Z,4.87
2018-03-20T22:42:50.371Z,4.93
2018-03-20T22:45:16.422Z,4.70
2018-03-20T22:47:43.223Z,4.90
2018-03-20T22:50:09.276Z,4.80
2018-03-20T22:52:35.384Z,5.10
2018-03-20T22:55:01.543Z,5.67
2018-03-20T22:57:27.567Z,5.23
2018-03-20T22:59:53.789Z,5.20
2018-03-20T23:02:20.559Z,5.43
2018-03-20T23:04:46.569Z,5.70
2018-03-20T23:07:13.328Z,5.40
2018-03-20T23:09:40.354Z,6.47
2018-03-20T23:12:06.620Z,6.33
2018-03-20T23:14:33.492Z,6.20
2018-03-20T23:17:00.250Z,5.77
2018-03-20T23:19:27.295Z,6.03
2018-03-20T23:21:54.047Z,5.10
2018-03-20T23:24:20.875Z,4.87
2018-03-20T23:26:46.901Z,5.60
2018-03-20T23:29:12.971Z,5.10
2018-03-20T23:31:39.945Z,5.20
2018-03-20T23:34:06.706Z,5.50
2018-03-20T23:36:32.929Z,4.77
2018-03-20T23:38:59.680Z,5.80
2018-03-20T23:41:26.448Z,5.10
2018-03-20T23:43:52.471Z,5.27
2018-03-20T23:46:19.277Z,4.80
2018-03-20T23:48:45.371Z,5.60
2018-03-20T23:51:12.136Z,5.00
2018-03-20T23:53:38.178Z,5.23
2018-03-20T23:56:04.318Z,5.60
2018-03-20T23:58:30.368Z,4.67
